Time;durP1;ratioP1;P1;durP2;ratioP2;P2;SDS_P1;SDS_P2;PMS_P1;PMS_P2;Temp;Humidity;BMP_temperature;BMP_pressure;BME280_temperature;BME280_humidity;BME280_pressure;Samples;Min_cycle;Max_cycle;Signal;HPM_P1;HPM_P2
2022/02/27 00:01:11;;;;;;;2.50;1.30;;;;;;;;;;5085789;28;20060;-65
2022/02/27 00:03:38;;;;;;;5.10;1.73;;;;;;;;;;5097851;28;20034;-67
2022/02/27 00:06:04;;;;;;;4.93;2.13;;;;;;;;;;5094549;28;20472;-65
2022/02/27 00:08:30;;;;;;;4.57;1.90;;;;;;;;;;5096105;28;20028;-65
2022/02/27 00:10:57;;;;;;;3.40;1.88;;;;;;;;;;5098543;28;20028;-65
2022/02/27 00:13:23;;;;;;;2.40;1.20;;;;;;;;;;5079352;28;20035;-65
2022/02/27 00:15:49;;;;;;;2.80;1.52;;;;;;;;;;5080052;28;20055;-65
2022/02/27 00:18:15;;;;;;;2.20;1.38;;;;;;;;;;5095664;28;20063;-65
2022/02/27 00:20:41;;;;;;;2.03;1.15;;;;;;;;;;5077153;28;20024;-65
2022/02/27 00:23:07;;;;;;;3.78;1.33;;;;;;;;;;5087441;28;20495;-66
2022/02/27 00:25:33;;;;;;;2.33;1.15;;;;;;;;;;5082175;28;20027;-67
2022/02/27 00:28:01;;;;;;;4.10;1.45;;;;;;;;;;5097418;28;20358;-66
2022/02/27 00:30:27;;;;;;;1.95;1.17;;;;;;;;;;5107974;28;20073;-67
2022/02/27 00:32:53;;;;;;;2.72;1.38;;;;;;;;;;5094185;28;20028;-66
2022/02/27 00:35:18;;;;;;;3.72;1.55;;;;;;;;;;5096560;28;20469;-66
2022/02/27 00:37:44;;;;;;;2.55;1.00;;;;;;;;;;5104639;28;20031;-66
2022/02/27 00:40:11;;;;;;;2.65;1.45;;;;;;;;;;5102995;28;20488;-66
2022/02/27 00:42:37;;;;;;;2.30;1.17;;;;;;;;;;5097415;28;20039;-66
2022/02/27 00:45:04;;;;;;;2.78;1.17;;;;;;;;;;5093352;28;20092;-66
2022/02/27 00:47:30;;;;;;;3.25;1.45;;;;;;;;;;5077043;28;20050;-67
2022/02/27 00:49:56;;;;;;;2.55;1.35;;;;;;;;;;5097109;28;20541;-67
2022/02/27 00:52:25;;;;;;;3.75;1.52;;;;;;;;;;5079074;28;20062;-67
2022/02/27 00:54:51;;;;;;;2.95;1.50;;;;;;;;;;5079380;28;20067;-66
2022/02/27 00:57:18;;;;;;;2.70;1.30;;;;;;;;;;5095554;28;20027;-65
2022/02/27 00:59:44;;;;;;;2.25;1.10;;;;;;;;;;5076028;28;20061;-65
2022/02/27 01:02:12;;;;;;;3.22;1.40;;;;;;;;;;5095801;28;20032;-65
2022/02/27 01:04:38;;;;;;;;;;;;;;;;;;5097293;28;20066;-66
2022/02/27 01:07:04;;;;;;;3.72;1.23;;;;;;;;;;5079143;28;19947;-65
2022/02/27 01:09:30;;;;;;;5.25;1.40;;;;;;;;;;5096342;28;20096;-65
2022/02/27 01:11:56;;;;;;;2.03;1.17;;;;;;;;;;5092720;28;20028;-65
2022/02/27 01:14:22;;;;;;;2.70;1.23;;;;;;;;;;5096387;28;20020;-65
2022/02/27 01:16:48;;;;;;;2.42;1.10;;;;;;;;;;5096277;28;20051;-65
2022/02/27 01:19:14;;;;;;;2.50;1.05;;;;;;;;;;5096424;28;20028;-65
2022/02/27 01:21:41;;;;;;;1.60;1.10;;;;;;;;;;5096291;28;20107;-65
2022/02/27 01:24:07;;;;;;;2.35;1.13;;;;;;;;;;5093118;28;20651;-65
2022/02/27 01:26:33;;;;;;;1.90;1.00;;;;;;;;;;5094573;28;20116;-65
2022/02/27 01:28:59;;;;;;;1.80;1.08;;;;;;;;;;5102647;28;20051;-65
2022/02/27 01:31:25;;;;;;;1.38;1.05;;;;;;;;;;5100542;28;20038;-66
2022/02/27 01:33:51;;;;;;;2.38;1.05;;;;;;;;;;5096345;28;20081;-66
2022/02/27 01:36:18;;;;;;;2.35;0.90;;;;;;;;;;5094313;28;20124;-66
2022/02/27 01:38:45;;;;;;;2.42;0.98;;;;;;;;;;5093097;28;20039;-66
2022/02/27 01:41:11;;;;;;;2.28;0.90;;;;;;;;;;5077497;28;20028;-66
2022/02/27 01:43:37;;;;;;;2.15;0.90;;;;;;;;;;5096305;28;20031;-66
2022/02/27 01:46:03;;;;;;;2.63;0.88;;;;;;;;;;5078383;28;20035;-66
2022/02/27 01:48:29;;;;;;;1.08;0.77;;;;;;;;;;5095768;28;20036;-66
2022/02/27 01:50:55;;;;;;;1.38;0.70;;;;;;;;;;5091237;28;20560;-66
2022/02/27 01:53:21;;;;;;;1.92;1.00;;;;;;;;;;5094881;28;20036;-66
2022/02/27 01:55:47;;;;;;;1.83;1.00;;;;;;;;;;5103655;28;20027;-66
2022/02/27 01:58:14;;;;;;;2.08;1.10;;;;;;;;;;5101483;28;20028;-66
2022/02/27 02:00:40;;;;;;;1.40;1.00;;;;;;;;;;5095572;28;20024;-66
2022/02/27 02:03:06;;;;;;;2.80;1.15;;;;;;;;;;5093188;28;20028;-66
2022/02/27 02:05:32;;;;;;;1.58;1.00;;;;;;;;;;5093827;28;20039;-66
2022/02/27 02:07:59;;;;;;;2.42;0.90;;;;;;;;;;5078270;28;20089;-66
2022/02/27 02:10:25;;;;;;;1.00;0.70;;;;;;;;;;5095555;28;20480;-67
2022/02/27 02:12:51;;;;;;;2.22;0.85;;;;;;;;;;5095518;28;20048;-67
2022/02/27 02:15:17;;;;;;;1.95;0.80;;;;;;;;;;5076318;28;20028;-67
2022/02/27 02:17:43;;;;;;;2.05;1.08;;;;;;;;;;5075141;28;20558;-66
2022/02/27 02:20:09;;;;;;;1.45;0.90;;;;;;;;;;5077130;28;20105;-66
2022/02/27 02:22:35;;;;;;;1.95;1.00;;;;;;;;;;5095959;28;20032;-66
2022/02/27 02:25:01;;;;;;;1.40;0.80;;;;;;;;;;5077186;28;20093;-66
2022/02/27 02:27:27;;;;;;;1.40;0.70;;;;;;;;;;5095641;28;20024;-66
2022/02/27 02:29:53;;;;;;;3.28;1.00;;;;;;;;;;5102387;28;20098;-66
2022/02/27 02:32:19;;;;;;;1.60;0.80;;;;;;;;;;5095111;28;20050;-67
2022/02/27 02:34:45;;;;;;;1.77;0.80;;;;;;;;;;5096096;28;20056;-66
2022/02/27 02:37:11;;;;;;;1.05;0.70;;;;;;;;;;5095070;28;20074;-66
2022/02/27 02:39:37;;;;;;;2.78;1.20;;;;;;;;;;5095726;28;20564;-66
2022/02/27 02:42:04;;;;;;;1.52;0.80;;;;;;;;;;5092026;28;20052;-66
2022/02/27 02:44:30;;;;;;;2.10;1.08;;;;;;;;;;5076195;28;20067;-66
2022/02/27 02:46:56;;;;;;;1.38;0.85;;;;;;;;;;5095250;28;20046;-66
2022/02/27 02:49:21;;;;;;;2.63;0.98;;;;;;;;;;5095125;28;20032;-66
2022/02/27 02:51:47;;;;;;;2.25;0.80;;;;;;;;;;5095468;28;20028;-67
2022/02/27 02:54:13;;;;;;;4.75;1.20;;;;;;;;;;5093416;28;20114;-66
2022/02/27 02:56:40;;;;;;;1.75;0.90;;;;;;;;;;5093076;28;20020;-66
2022/02/27 02:59:06;;;;;;;1.20;0.80;;;;;;;;;;5094707;28;20111;-66
2022/02/27 03:01:32;;;;;;;1.35;0.80;;;;;;;;;;5095524;28;20158;-66
2022/02/27 03:03:59;;;;;;;1.77;0.90;;;;;;;;;;5078283;28;20469;-66
2022/02/27 03:06:25;;;;;;;2.50;0.90;;;;;;;;;;5098664;28;20026;-66
2022/02/27 03:08:52;;;;;;;1.77;0.90;;;;;;;;;;5095434;28;20043;-66
2022/02/27 03:11:19;;;;;;;1.50;0.80;;;;;;;;;;5098404;28;20031;-66
2022/02/27 03:13:45;;;;;;;1.67;1.00;;;;;;;;;;5081506;28;20039;-66
2022/02/27 03:16:11;;;;;;;2.00;0.95;;;;;;;;;;5098458;28;20457;-66
2022/02/27 03:18:38;;;;;;;1.63;0.90;;;;;;;;;;5098282;28;20028;-66
2022/02/27 03:21:04;;;;;;;0.90;0.80;;;;;;;;;;5077762;28;20110;-66
2022/02/27 03:23:31;;;;;;;0.90;0.60;;;;;;;;;;5097378;28;20108;-66
2022/02/27 03:25:57;;;;;;;1.80;0.90;;;;;;;;;;5080482;28;20036;-66
2022/02/27 03:28:23;;;;;;;1.65;0.88;;;;;;;;;;5082277;28;20054;-66
2022/02/27 03:30:49;;;;;;;1.70;0.73;;;;;;;;;;5107870;28;20028;-66
2022/02/27 03:33:15;;;;;;;3.13;0.88;;;;;;;;;;5078701;28;20039;-66
2022/02/27 03:35:41;;;;;;;1.92;0.98;;;;;;;;;;5095533;28;20337;-66
2022/02/27 03:38:07;;;;;;;1.42;0.80;;;;;;;;;;5088702;28;20039;-66
2022/02/27 03:40:34;;;;;;;2.13;0.88;;;;;;;;;;5083612;28;20434;-66
2022/02/27 03:43:00;;;;;;;1.45;0.90;;;;;;;;;;5098418;28;20085;-66
2022/02/27 03:45:26;;;;;;;2.25;0.98;;;;;;;;;;5079745;28;20072;-67
2022/02/27 03:47:54;;;;;;;1.38;0.77;;;;;;;;;;5076051;28;20027;-66
2022/02/27 03:50:20;;;;;;;6.55;1.05;;;;;;;;;;5097928;28;20028;-66
2022/02/27 03:52:46;;;;;;;1.88;0.90;;;;;;;;;;5105975;28;20058;-66
2022/02/27 03:55:14;;;;;;;1.98;1.02;;;;;;;;;;5103941;28;20020;-66
2022/02/27 03:57:40;;;;;;;1.30;0.70;;;;;;;;;;5097790;28;20034;-66
2022/02/27 04:00:08;;;;;;;2.40;0.90;;;;;;;;;;5094827;28;20484;-66
2022/02/27 04:02:34;;;;;;;1.88;1.00;;;;;;;;;;5077330;28;20039;-67
2022/02/27 04:04:59;;;;;;;1.27;0.90;;;;;;;;;;5080428;28;20509;-66
2022/02/27 04:07:25;;;;;;;1.55;0.90;;;;;;;;;;5097990;28;20035;-66
2022/02/27 04:09:51;;;;;;;1.77;1.00;;;;;;;;;;5080482;28;20068;-66
2022/02/27 04:12:17;;;;;;;1.80;0.77;;;;;;;;;;5076490;28;20092;-66
2022/02/27 04:14:43;;;;;;;4.63;1.10;;;;;;;;;;5109311;28;20032;-66
2022/02/27 04:17:09;;;;;;;0.80;0.80;;;;;;;;;;5096727;28;20067;-66
2022/02/27 04:19:35;;;;;;;1.92;0.90;;;;;;;;;;5097784;28;20063;-66
2022/02/27 04:22:01;;;;;;;1.80;1.10;;;;;;;;;;5097368;28;20059;-66
2022/02/27 04:24:27;;;;;;;1.02;0.80;;;;;;;;;;5079474;28;20015;-66
2022/02/27 04:26:53;;;;;;;2.05;1.20;;;;;;;;;;5093841;28;20392;-66
2022/02/27 04:29:20;;;;;;;1.40;0.82;;;;;;;;;;5105639;28;20438;-66
2022/02/27 04:31:46;;;;;;;3.58;1.10;;;;;;;;;;5098816;28;20032;-66
2022/02/27 04:34:12;;;;;;;1.67;0.93;;;;;;;;;;5097687;28;20028;-66
2022/02/27 04:36:38;;;;;;;2.75;1.25;;;;;;;;;;5097043;28;20030;-66
2022/02/27 04:39:04;;;;;;;2.78;1.00;;;;;;;;;;5075755;28;20119;-66
2022/02/27 04:41:30;;;;;;;2.08;1.15;;;;;;;;;;5095816;28;20020;-66
2022/02/27 04:43:56;;;;;;;1.45;0.77;;;;;;;;;;5097691;28;20042;-66
2022/02/27 04:46:22;;;;;;;1.55;0.98;;;;;;;;;;5097080;28;20028;-66
2022/02/27 04:48:48;;;;;;;1.67;0.70;;;;;;;;;;5097103;28;20514;-65
2022/02/27 04:51:14;;;;;;;1.65;0.93;;;;;;;;;;5095075;28;20177;-66
2022/02/27 04:53:41;;;;;;;1.67;0.90;;;;;;;;;;5094245;28;20097;-66
2022/02/27 04:56:08;;;;;;;2.50;0.95;;;;;;;;;;5096791;28;20381;-66
2022/02/27 04:58:34;;;;;;;2.88;1.00;;;;;;;;;;5096313;28;20514;-66
2022/02/27 05:01:00;;;;;;;0.82;0.70;;;;;;;;;;5097093;28;20024;-66
2022/02/27 05:03:26;;;;;;;2.35;1.00;;;;;;;;;;5096512;28;20019;-66
2022/02/27 05:05:52;;;;;;;1.58;0.80;;;;;;;;;;5074359;28;20020;-66
2022/02/27 05:08:18;;;;;;;1.70;1.05;;;;;;;;;;5096266;28;20038;-66
2022/02/27 05:10:44;;;;;;;1.52;0.80;;;;;;;;;;5104219;28;20024;-66
2022/02/27 05:13:10;;;;;;;1.27;0.80;;;;;;;;;;5102554;28;20476;-66
2022/02/27 05:15:36;;;;;;;1.63;0.73;;;;;;;;;;5096696;28;20051;-66
2022/02/27 05:18:02;;;;;;;2.17;0.85;;;;;;;;;;5092673;28;20028;-66
2022/02/27 05:20:28;;;;;;;1.70;0.80;;;;;;;;;;5095532;28;20046;-66
2022/02/27 05:22:54;;;;;;;3.38;0.80;;;;;;;;;;5096907;28;20032;-66
2022/02/27 05:25:21;;;;;;;2.28;1.23;;;;;;;;;;5096297;28;20488;-65
2022/02/27 05:27:48;;;;;;;1.50;1.00;;;;;;;;;;5095899;28;20122;-66
2022/02/27 05:30:14;;;;;;;1.77;1.15;;;;;;;;;;5104474;28;20028;-66
2022/02/27 05:32:40;;;;;;;2.03;0.80;;;;;;;;;;5075770;28;20393;-66
2022/02/27 05:35:06;;;;;;;1.90;0.90;;;;;;;;;;5096262;28;20041;-67
2022/02/27 05:37:33;;;;;;;1.83;0.90;;;;;;;;;;5078609;28;20396;-66
2022/02/27 05:39:59;;;;;;;2.65;1.00;;;;;;;;;;5096172;28;20020;-66
2022/02/27 05:42:25;;;;;;;2.72;0.80;;;;;;;;;;5095018;28;20027;-66
2022/02/27 05:44:51;;;;;;;1.85;1.00;;;;;;;;;;5092247;28;20020;-66
2022/02/27 05:47:17;;;;;;;1.38;0.80;;;;;;;;;;5077699;28;20419;-66
2022/02/27 05:49:43;;;;;;;2.70;1.20;;;;;;;;;;5103162;28;20115;-67
2022/02/27 05:52:09;;;;;;;1.45;1.00;;;;;;;;;;5084346;28;20036;-66
2022/02/27 05:54:36;;;;;;;1.20;0.80;;;;;;;;;;5077864;28;20368;-66
2022/02/27 05:57:02;;;;;;;1.50;0.77;;;;;;;;;;5074581;28;20041;-66
2022/02/27 05:59:28;;;;;;;1.67;0.98;;;;;;;;;;5095110;28;20050;-66
2022/02/27 06:01:54;;;;;;;0.93;0.65;;;;;;;;;;5111894;27;20194;-66
2022/02/27 06:04:21;;;;;;;1.30;0.60;;;;;;;;;;5078447;28;20030;-66
2022/02/27 06:06:47;;;;;;;2.78;0.85;;;;;;;;;;5078288;28;20047;-66
2022/02/27 06:09:13;;;;;;;1.20;0.82;;;;;;;;;;5075050;28;20024;-66
2022/02/27 06:11:39;;;;;;;0.80;0.70;;;;;;;;;;5075184;28;20035;-65
2022/02/27 06:14:06;;;;;;;0.95;0.65;;;;;;;;;;5086468;28;20036;-65
2022/02/27 06:16:32;;;;;;;2.47;0.80;;;;;;;;;;5086796;28;20024;-66
2022/02/27 06:18:58;;;;;;;2.15;0.98;;;;;;;;;;5106784;28;20031;-73
2022/02/27 06:21:24;;;;;;;2.03;1.00;;;;;;;;;;5091197;28;20106;-72
2022/02/27 06:23:50;;;;;;;1.30;0.82;;;;;;;;;;5108441;28;20032;-71
2022/02/27 06:26:16;;;;;;;3.65;0.95;;;;;;;;;;5095269;28;20048;-71
2022/02/27 06:28:42;;;;;;;2.13;0.93;;;;;;;;;;5102288;28;20040;-71
2022/02/27 06:31:08;;;;;;;1.63;0.77;;;;;;;;;;5101925;28;20028;-71
2022/02/27 06:33:34;;;;;;;1.05;0.77;;;;;;;;;;5078007;28;20071;-71
2022/02/27 06:36:00;;;;;;;0.88;0.60;;;;;;;;;;5091062;28;20096;-73
2022/02/27 06:38:27;;;;;;;1.83;0.90;;;;;;;;;;5093377;28;20085;-72
2022/02/27 06:40:53;;;;;;;1.35;0.68;;;;;;;;;;5099617;28;20028;-71
2022/02/27 06:43:19;;;;;;;1.58;0.73;;;;;;;;;;5081481;28;20488;-72
2022/02/27 06:45:45;;;;;;;0.60;0.50;;;;;;;;;;5081899;28;20369;-72
2022/02/27 06:48:11;;;;;;;1.13;0.60;;;;;;;;;;5096891;28;20035;-74
2022/02/27 06:50:37;;;;;;;1.60;0.63;;;;;;;;;;5078391;27;20542;-72
2022/02/27 06:53:03;;;;;;;2.13;0.80;;;;;;;;;;5082210;28;20044;-74
2022/02/27 06:55:29;;;;;;;1.85;0.70;;;;;;;;;;5080977;28;20020;-71
2022/02/27 06:57:55;;;;;;;1.70;0.70;;;;;;;;;;5098724;28;20038;-71
2022/02/27 07:00:21;;;;;;;1.33;0.70;;;;;;;;;;5079432;28;20100;-69
2022/02/27 07:02:48;;;;;;;0.95;0.70;;;;;;;;;;5077268;28;20039;-68
2022/02/27 07:05:14;;;;;;;0.82;0.60;;;;;;;;;;5109264;28;20073;-64
2022/02/27 07:07:40;;;;;;;0.82;0.50;;;;;;;;;;5107318;28;20372;-67
2022/02/27 07:10:07;;;;;;;1.05;0.60;;;;;;;;;;5089398;28;20476;-66
2022/02/27 07:12:34;;;;;;;2.25;0.75;;;;;;;;;;5095123;28;20499;-66
2022/02/27 07:15:00;;;;;;;2.25;0.70;;;;;;;;;;5109837;28;20028;-65
2022/02/27 07:17:26;;;;;;;0.80;0.60;;;;;;;;;;5095222;28;20547;-67
2022/02/27 07:19:52;;;;;;;1.77;0.65;;;;;;;;;;5082747;28;20085;-66
2022/02/27 07:22:19;;;;;;;2.08;0.85;;;;;;;;;;5080093;28;20031;-66
2022/02/27 07:24:45;;;;;;;1.27;0.90;;;;;;;;;;5097272;28;20569;-65
2022/02/27 07:27:11;;;;;;;1.08;0.80;;;;;;;;;;5082472;27;20031;-66
2022/02/27 07:29:38;;;;;;;1.30;0.75;;;;;;;;;;5076393;28;20052;-67
2022/02/27 07:32:04;;;;;;;1.63;0.80;;;;;;;;;;5056487;28;20041;-67
2022/02/27 07:34:30;;;;;;;2.25;0.98;;;;;;;;;;5064739;28;20028;-65
2022/02/27 07:36:56;;;;;;;1.15;0.80;;;;;;;;;;5063906;28;20030;-65
2022/02/27 07:39:23;;;;;;;1.42;0.80;;;;;;;;;;5062443;28;20040;-66
2022/02/27 07:41:50;;;;;;;1.52;0.90;;;;;;;;;;5044510;28;20037;-64
2022/02/27 07:44:16;;;;;;;3.47;1.10;;;;;;;;;;5049182;28;20036;-64
2022/02/27 07:46:42;;;;;;;2.17;1.23;;;;;;;;;;5048424;28;20033;-65
2022/02/27 07:49:08;;;;;;;1.90;1.30;;;;;;;;;;5047526;28;20025;-65
2022/02/27 07:51:34;;;;;;;3.95;1.30;;;;;;;;;;5050358;28;20025;-64
2022/02/27 07:54:00;;;;;;;1.60;0.90;;;;;;;;;;5047403;28;20028;-66
2022/02/27 07:56:27;;;;;;;1.40;1.00;;;;;;;;;;5051639;28;20017;-65
2022/02/27 07:58:53;;;;;;;2.22;1.40;;;;;;;;;;5051161;28;20040;-67
2022/02/27 08:01:19;;;;;;;2.13;1.30;;;;;;;;;;5053359;28;20029;-66
2022/02/27 08:03:45;;;;;;;2.63;1.33;;;;;;;;;;5061052;28;20029;-65
2022/02/27 08:06:11;;;;;;;2.30;1.25;;;;;;;;;;5047602;28;20040;-64
2022/02/27 08:08:37;;;;;;;1.92;1.30;;;;;;;;;;5049113;28;20033;-66
2022/02/27 08:11:05;;;;;;;1.65;1.00;;;;;;;;;;5051830;28;20047;-66
2022/02/27 08:13:31;;;;;;;2.78;1.33;;;;;;;;;;5051059;28;20037;-65
2022/02/27 08:15:58;;;;;;;3.45;1.10;;;;;;;;;;5052091;28;20036;-65
2022/02/27 08:18:28;;;;;;;1.63;0.90;;;;;;;;;;5048768;28;20029;-64
2022/02/27 08:20:54;;;;;;;1.52;0.82;;;;;;;;;;5044538;28;20024;-66
2022/02/27 08:23:20;;;;;;;1.98;1.00;;;;;;;;;;5061249;28;20539;-66
2022/02/27 08:25:47;;;;;;;1.15;0.70;;;;;;;;;;5060793;28;20032;-66
2022/02/27 08:28:13;;;;;;;1.17;0.90;;;;;;;;;;5062286;28;20036;-68
2022/02/27 08:30:39;;;;;;;1.50;0.98;;;;;;;;;;5100579;28;20114;-66
2022/02/27 08:33:06;;;;;;;2.28;0.85;;;;;;;;;;5085442;28;20697;-64
2022/02/27 08:35:32;;;;;;;0.80;0.60;;;;;;;;;;5088116;28;20024;-65
2022/02/27 08:37:58;;;;;;;1.05;0.70;;;;;;;;;;5089640;28;20110;-64
2022/02/27 08:40:24;;;;;;;0.90;0.80;;;;;;;;;;5089442;28;20050;-70
2022/02/27 08:42:57;;;;;;;0.85;0.60;;;;;;;;;;5083432;28;20377;-70
2022/02/27 08:45:23;;;;;;;1.38;0.63;;;;;;;;;;5086448;28;20484;-63
2022/02/27 08:47:50;;;;;;;1.08;0.60;;;;;;;;;;5085568;28;20038;-65
2022/02/27 08:50:16;;;;;;;1.05;0.57;;;;;;;;;;5100393;28;20495;-66
2022/02/27 08:52:42;;;;;;;1.48;0.60;;;;;;;;;;5098723;28;20036;-64
2022/02/27 08:55:09;;;;;;;0.73;0.60;;;;;;;;;;5096239;28;20515;-66
2022/02/27 08:57:35;;;;;;;0.93;0.50;;;;;;;;;;5088059;28;20035;-65
2022/02/27 09:00:01;;;;;;;1.15;0.50;;;;;;;;;;5093242;28;20095;-61
2022/02/27 09:02:27;;;;;;;0.65;0.63;;;;;;;;;;5087665;28;20051;-63
2022/02/27 09:04:53;;;;;;;1.02;0.70;;;;;;;;;;5089198;28;20032;-66
2022/02/27 09:07:19;;;;;;;0.82;0.60;;;;;;;;;;5086573;28;20825;-65
2022/02/27 09:09:45;;;;;;;2.53;0.70;;;;;;;;;;5088905;28;20023;-64
2022/02/27 09:12:12;;;;;;;1.15;0.55;;;;;;;;;;5085865;28;20111;-63
2022/02/27 09:14:38;;;;;;;3.05;0.57;;;;;;;;;;5083790;28;20081;-64
2022/02/27 09:17:04;;;;;;;1.63;0.70;;;;;;;;;;5087707;28;20122;-65
2022/02/27 09:19:30;;;;;;;1.45;0.77;;;;;;;;;;5088520;28;20055;-66
2022/02/27 09:21:57;;;;;;;0.95;0.65;;;;;;;;;;5086791;28;20036;-64
2022/02/27 09:24:23;;;;;;;1.02;0.70;;;;;;;;;;5086355;28;20123;-65
2022/02/27 09:26:49;;;;;;;0.90;0.50;;;;;;;;;;5084516;28;20028;-64
2022/02/27 09:29:15;;;;;;;0.57;0.45;;;;;;;;;;5095864;28;20052;-61
2022/02/27 09:31:42;;;;;;;0.80;0.50;;;;;;;;;;5089523;28;20477;-63
2022/02/27 09:34:09;;;;;;;2.85;0.90;;;;;;;;;;5064245;28;20127;-61
2022/02/27 09:36:35;;;;;;;0.73;0.60;;;;;;;;;;5102419;27;20369;-62
2022/02/27 09:39:01;;;;;;;1.00;0.60;;;;;;;;;;5101284;27;20027;-63
2022/02/27 09:41:27;;;;;;;1.15;0.65;;;;;;;;;;5086706;28;20137;-62
2022/02/27 09:43:54;;;;;;;0.65;0.50;;;;;;;;;;5087320;28;20041;-62
2022/02/27 09:46:21;;;;;;;1.13;0.63;;;;;;;;;;5089037;28;20074;-63
2022/02/27 09:48:47;;;;;;;1.00;0.70;;;;;;;;;;5069472;28;20027;-62
2022/02/27 09:51:14;;;;;;;1.25;0.60;;;;;;;;;;5084727;28;20052;-64
2022/02/27 09:53:40;;;;;;;0.80;0.43;;;;;;;;;;5097921;28;20376;-64
2022/02/27 09:56:06;;;;;;;0.25;0.25;;;;;;;;;;5077302;28;20114;-64
2022/02/27 09:58:32;;;;;;;0.52;0.47;;;;;;;;;;5096169;28;20114;-65
2022/02/27 10:00:58;;;;;;;0.85;0.50;;;;;;;;;;5095593;28;20364;-65
2022/02/27 10:03:29;;;;;;;0.95;0.68;;;;;;;;;;5085571;28;20036;-65
2022/02/27 10:06:02;;;;;;;2.22;0.70;;;;;;;;;;5065231;28;20552;-64
2022/02/27 10:08:36;;;;;;;1.67;0.60;;;;;;;;;;5097479;28;20074;-64
2022/02/27 10:11:02;;;;;;;3.17;1.05;;;;;;;;;;5098474;28;20451;-63
2022/02/27 10:13:34;;;;;;;1.10;0.60;;;;;;;;;;5094851;28;20063;-63
2022/02/27 10:16:06;;;;;;;1.90;0.60;;;;;;;;;;5099780;28;20020;-64
2022/02/27 10:18:43;;;;;;;2.15;0.98;;;;;;;;;;5091894;28;20088;-64
2022/02/27 10:21:19;;;;;;;1.20;0.70;;;;;;;;;;5097615;28;20488;-63
2022/02/27 10:23:54;;;;;;;1.35;0.70;;;;;;;;;;5107730;28;20019;-62
2022/02/27 10:26:21;;;;;;;1.10;0.70;;;;;;;;;;5097132;28;20024;-63
2022/02/27 10:29:05;;;;;;;2.08;1.00;;;;;;;;;;5097081;28;20479;-62
2022/02/27 10:31:31;;;;;;;0.98;0.88;;;;;;;;;;5101720;28;20035;-62
2022/02/27 10:34:27;;;;;;;2.30;0.90;;;;;;;;;;5102524;28;20028;-62
2022/02/27 10:37:03;;;;;;;0.95;0.77;;;;;;;;;;5081822;28;20047;-64
2022/02/27 10:39:29;;;;;;;1.55;0.80;;;;;;;;;;5090999;28;20059;-62
2022/02/27 10:42:05;;;;;;;1.35;0.80;;;;;;;;;;5107326;28;20137;-62
2022/02/27 10:44:31;;;;;;;2.03;1.10;;;;;;;;;;5104571;28;20020;-62
2022/02/27 10:47:15;;;;;;;2.03;1.23;;;;;;;;;;5094632;28;20028;-62
2022/02/27 10:49:42;;;;;;;2.58;1.42;;;;;;;;;;5093440;28;20384;-63
2022/02/27 10:52:12;;;;;;;2.10;1.20;;;;;;;;;;5094192;28;20263;-64
2022/02/27 10:54:41;;;;;;;1.75;1.05;;;;;;;;;;5094313;28;20031;-63
2022/02/27 10:57:11;;;;;;;2.08;1.10;;;;;;;;;;5087800;28;20392;-64
2022/02/27 10:59:40;;;;;;;2.05;1.17;;;;;;;;;;5091456;28;20423;-63
2022/02/27 11:02:09;;;;;;;2.35;0.98;;;;;;;;;;5093667;28;20550;-64
2022/02/27 11:04:35;;;;;;;;;;;;;;;;;;5094010;28;20063;-71
2022/02/27 11:07:02;;;;;;;1.23;0.93;;;;;;;;;;5093791;28;19915;-62
2022/02/27 11:09:28;;;;;;;1.67;1.08;;;;;;;;;;5092012;28;20020;-65
2022/02/27 11:11:54;;;;;;;2.13;1.20;;;;;;;;;;5089081;28;20063;-66
2022/02/27 11:14:21;;;;;;;2.50;1.10;;;;;;;;;;5093711;28;20058;-66
2022/02/27 11:16:50;;;;;;;1.38;1.05;;;;;;;;;;5090582;28;20073;-65
2022/02/27 11:19:17;;;;;;;2.70;1.20;;;;;;;;;;5093558;28;20016;-66
2022/02/27 11:21:43;;;;;;;1.38;0.90;;;;;;;;;;5092795;28;20099;-65
2022/02/27 11:24:10;;;;;;;2.03;1.27;;;;;;;;;;5086993;28;20104;-61
2022/02/27 11:26:36;;;;;;;2.28;0.90;;;;;;;;;;5107030;28;20012;-61
2022/02/27 11:29:05;;;;;;;2.90;1.30;;;;;;;;;;5090689;28;20099;-66
2022/02/27 11:31:32;;;;;;;2.25;1.30;;;;;;;;;;5105153;28;20032;-63
2022/02/27 11:34:14;;;;;;;2.42;1.27;;;;;;;;;;5102481;28;20078;-62
2022/02/27 11:36:41;;;;;;;1.42;1.00;;;;;;;;;;5102981;28;20024;-62
2022/02/27 11:40:27;;;;;;;1.77;1.15;;;;;;;;;;5108522;28;20107;-63
2022/02/27 11:41:53;;;;;;;2.15;1.25;;;;;;;;;;5110149;28;20032;-63
2022/02/27 11:44:19;;;;;;;2.75;1.40;;;;;;;;;;5112353;28;20488;-64
2022/02/27 11:46:46;;;;;;;3.83;1.20;;;;;;;;;;5110813;28;20018;-63
2022/02/27 11:49:19;;;;;;;2.70;1.25;;;;;;;;;;5109302;28;20035;-62
2022/02/27 11:51:46;;;;;;;2.30;1.15;;;;;;;;;;5106778;28;20472;-63
2022/02/27 11:54:12;;;;;;;2.08;1.30;;;;;;;;;;5110900;28;20040;-63
2022/02/27 11:56:40;;;;;;;2.67;1.30;;;;;;;;;;5111021;28;20012;-63
2022/02/27 11:59:07;;;;;;;2.20;1.35;;;;;;;;;;5111763;28;20030;-62
2022/02/27 12:01:38;;;;;;;1.55;1.08;;;;;;;;;;5110687;28;20028;-62
2022/02/27 12:04:20;;;;;;;1.30;1.00;;;;;;;;;;5110782;28;20024;-62
2022/02/27 12:07:00;;;;;;;1.48;1.15;;;;;;;;;;5109022;28;20023;-64
2022/02/27 12:09:26;;;;;;;1.80;0.75;;;;;;;;;;5109984;28;20043;-65
2022/02/27 12:11:52;;;;;;;3.38;1.33;;;;;;;;;;5110284;28;20054;-65
2022/02/27 12:14:18;;;;;;;2.58;1.30;;;;;;;;;;5111868;28;20609;-66
2022/02/27 12:16:45;;;;;;;2.58;1.10;;;;;;;;;;5110315;28;20026;-66
2022/02/27 12:19:25;;;;;;;2.03;1.35;;;;;;;;;;5092445;28;20019;-65
2022/02/27 12:21:55;;;;;;;1.88;1.10;;;;;;;;;;5109413;28;20019;-67
2022/02/27 12:24:31;;;;;;;2.38;1.27;;;;;;;;;;5108096;28;20027;-66
2022/02/27 12:26:58;;;;;;;2.10;1.30;;;;;;;;;;5109335;28;20051;-66
2022/02/27 12:29:26;;;;;;;2.97;1.10;;;;;;;;;;5114378;27;20046;-66
2022/02/27 12:31:53;;;;;;;2.22;1.00;;;;;;;;;;5110305;28;20015;-66
2022/02/27 12:34:20;;;;;;;2.28;1.17;;;;;;;;;;5102964;28;20047;-62
2022/02/27 12:36:53;;;;;;;1.60;0.90;;;;;;;;;;5096422;28;20441;-64
2022/02/27 12:39:19;;;;;;;1.90;1.08;;;;;;;;;;5096053;28;20123;-64
2022/02/27 12:41:47;;;;;;;0.88;0.70;;;;;;;;;;5094781;28;20013;-64
2022/02/27 12:44:18;;;;;;;1.45;0.90;;;;;;;;;;5097320;28;20425;-62
2022/02/27 12:46:44;;;;;;;1.85;1.20;;;;;;;;;;5096580;28;20028;-63
2022/02/27 12:51:58;;;;;;;4.28;1.25;;;;;;;;;;5097908;28;20077;-63
2022/02/27 12:54:30;;;;;;;1.15;0.82;;;;;;;;;;5102989;28;20563;-68
2022/02/27 12:56:56;;;;;;;1.48;0.98;;;;;;;;;;5097833;28;20011;-68
2022/02/27 12:59:26;;;;;;;1.13;0.77;;;;;;;;;;5108349;28;20417;-67
2022/02/27 13:01:56;;;;;;;1.80;1.10;;;;;;;;;;5097710;28;20419;-66
2022/02/27 13:04:26;;;;;;;1.35;1.00;;;;;;;;;;5096407;28;20031;-64
2022/02/27 13:07:03;;;;;;;2.20;1.00;;;;;;;;;;5096778;28;20042;-66
2022/02/27 13:09:30;;;;;;;2.28;1.40;;;;;;;;;;5096594;28;20083;-67
2022/02/27 13:11:56;;;;;;;1.70;1.05;;;;;;;;;;5092272;28;20481;-67
2022/02/27 13:14:23;;;;;;;2.28;1.20;;;;;;;;;;5096394;28;20492;-67
2022/02/27 13:16:50;;;;;;;1.58;0.82;;;;;;;;;;5078924;28;20039;-67
2022/02/27 13:19:28;;;;;;;1.88;1.10;;;;;;;;;;5096502;28;20031;-67
2022/02/27 13:21:54;;;;;;;2.47;1.08;;;;;;;;;;5099262;28;20039;-66
2022/02/27 13:24:30;;;;;;;2.95;1.30;;;;;;;;;;5108405;28;20020;-68
2022/02/27 13:26:57;;;;;;;1.40;0.90;;;;;;;;;;5087054;28;20019;-68
2022/02/27 13:29:22;;;;;;;1.73;0.90;;;;;;;;;;5105834;28;20065;-68
2022/02/27 13:31:49;;;;;;;2.47;1.27;;;;;;;;;;5097689;28;20036;-68
2022/02/27 13:34:17;;;;;;;1.98;1.13;;;;;;;;;;5101519;28;20044;-68
2022/02/27 13:36:43;;;;;;;1.77;0.85;;;;;;;;;;5076394;28;20024;-68
2022/02/27 13:39:09;;;;;;;1.55;1.00;;;;;;;;;;5107705;28;20085;-69
2022/02/27 13:41:39;;;;;;;1.60;1.02;;;;;;;;;;5075720;28;20016;-68
2022/02/27 13:44:05;;;;;;;1.00;0.82;;;;;;;;;;5105726;28;20031;-68
2022/02/27 13:46:32;;;;;;;2.03;1.02;;;;;;;;;;5098935;28;20089;-68
2022/02/27 13:49:11;;;;;;;2.47;1.10;;;;;;;;;;5095910;28;20400;-68
2022/02/27 13:51:37;;;;;;;2.08;1.00;;;;;;;;;;5096224;28;20431;-68
2022/02/27 13:54:12;;;;;;;1.60;0.90;;;;;;;;;;5092565;28;20053;-68
2022/02/27 13:56:39;;;;;;;2.85;0.90;;;;;;;;;;5106606;28;20100;-68
2022/02/27 13:59:17;;;;;;;2.33;0.90;;;;;;;;;;5096202;28;20043;-68
2022/02/27 14:01:43;;;;;;;1.17;0.77;;;;;;;;;;5096124;28;20070;-68
2022/02/27 14:04:09;;;;;;;1.38;0.70;;;;;;;;;;5096799;28;20103;-68
2022/02/27 14:06:35;;;;;;;2.25;1.00;;;;;;;;;;5107091;28;20038;-68
2022/02/27 14:09:01;;;;;;;1.58;1.10;;;;;;;;;;5091276;28;20023;-68
2022/02/27 14:11:28;;;;;;;2.25;1.00;;;;;;;;;;5107078;28;20022;-68
2022/02/27 14:13:56;;;;;;;1.00;0.70;;;;;;;;;;5075567;28;20608;-68
2022/02/27 14:16:25;;;;;;;1.25;0.90;;;;;;;;;;5096446;28;20407;-68
2022/02/27 14:18:51;;;;;;;1.63;0.90;;;;;;;;;;5101369;28;20036;-68
2022/02/27 14:21:17;;;;;;;1.67;0.80;;;;;;;;;;5093858;28;20016;-68
2022/02/27 14:23:50;;;;;;;0.90;0.70;;;;;;;;;;5092918;28;20077;-68
2022/02/27 14:26:16;;;;;;;1.52;1.10;;;;;;;;;;5095779;28;20126;-67
2022/02/27 14:28:50;;;;;;;1.08;0.77;;;;;;;;;;5101801;28;20512;-68
2022/02/27 14:31:16;;;;;;;1.15;0.82;;;;;;;;;;5100839;28;20024;-69
2022/02/27 14:33:42;;;;;;;1.70;0.80;;;;;;;;;;5096806;28;20035;-68
2022/02/27 14:36:08;;;;;;;2.15;1.10;;;;;;;;;;5107441;28;20020;-68
2022/02/27 14:38:36;;;;;;;2.88;1.15;;;;;;;;;;5106763;28;20031;-68
2022/02/27 14:41:02;;;;;;;0.93;0.80;;;;;;;;;;5105412;28;20028;-68
2022/02/27 14:43:29;;;;;;;1.00;0.80;;;;;;;;;;5080988;28;20492;-68
2022/02/27 14:45:55;;;;;;;1.23;0.80;;;;;;;;;;5102967;28;20439;-68